sensor_id;sensor_type;location;lat;lon;timestamp;temperature;humidity
44863;DHT22;30597;49.628;10.850;2023-11-25T00:00:40;16.10;53.50
44863;DHT22;30597;49.628;10.850;2023-11-25T00:03:05;16.00;53.50
44863;DHT22;30597;49.628;10.850;2023-11-25T00:05:31;16.10;53.10
44863;DHT22;30597;49.628;10.850;2023-11-25T00:07:56;16.00;53.60
44863;DHT22;30597;49.628;10.850;2023-11-25T00:10:22;16.00;53.80
44863;DHT22;30597;49.628;10.850;2023-11-25T00:12:48;15.90;53.40
44863;DHT22;30597;49.628;10.850;2023-11-25T00:15:13;15.90;53.50
44863;DHT22;30597;49.628;10.850;2023-11-25T00:17:40;15.90;53.30
44863;DHT22;30597;49.628;10.850;2023-11-25T00:20:06;15.90;53.40
44863;DHT22;30597;49.628;10.850;2023-11-25T00:22:33;15.90;53.30
44863;DHT22;30597;49.628;10.850;2023-11-25T00:24:59;15.90;54.10
44863;DHT22;30597;49.628;10.850;2023-11-25T00:27:25;15.90;53.70
44863;DHT22;30597;49.628;10.850;2023-11-25T00:29:50;15.90;53.30
44863;DHT22;30597;49.628;10.850;2023-11-25T00:32:16;15.90;53.70
44863;DHT22;30597;49.628;10.850;2023-11-25T00:34:42;16.00;53.70
44863;DHT22;30597;49.628;10.850;2023-11-25T00:37:09;15.90;53.70
44863;DHT22;30597;49.628;10.850;2023-11-25T00:39:34;15.90;53.50
44863;DHT22;30597;49.628;10.850;2023-11-25T00:42:00;15.90;53.60
44863;DHT22;30597;49.628;10.850;2023-11-25T00:44:28;15.80;53.50
44863;DHT22;30597;49.628;10.850;2023-11-25T00:46:56;15.80;53.80
44863;DHT22;30597;49.628;10.850;2023-11-25T00:49:22;15.90;53.70
44863;DHT22;30597;49.628;10.850;2023-11-25T00:51:48;15.80;53.70
44863;DHT22;30597;49.628;10.850;2023-11-25T00:54:13;15.80;53.80
44863;DHT22;30597;49.628;10.850;2023-11-25T00:56:39;15.80;53.70
44863;DHT22;30597;49.628;10.850;2023-11-25T00:59:04;15.70;54.00
44863;DHT22;30597;49.628;10.850;2023-11-25T01:01:30;15.70;53.40
44863;DHT22;30597;49.628;10.850;2023-11-25T01:03:56;15.70;53.30
44863;DHT22;30597;49.628;10.850;2023-11-25T01:06:21;15.80;53.70
44863;DHT22;30597;49.628;10.850;2023-11-25T01:08:47;15.80;54.40
44863;DHT22;30597;49.628;10.850;2023-11-25T01:11:16;15.70;54.20
44863;DHT22;30597;49.628;10.850;2023-11-25T01:13:42;15.70;54.30
44863;DHT22;30597;49.628;10.850;2023-11-25T01:16:17;15.70;53.40
44863;DHT22;30597;49.628;10.850;2023-11-25T01:18:43;15.80;53.40
44863;DHT22;30597;49.628;10.850;2023-11-25T01:21:08;15.60;53.70
44863;DHT22;30597;49.628;10.850;2023-11-25T01:23:35;15.70;53.40
44863;DHT22;30597;49.628;10.850;2023-11-25T01:26:00;15.60;53.60
44863;DHT22;30597;49.628;10.850;2023-11-25T01:28:26;15.70;53.60
44863;DHT22;30597;49.628;10.850;2023-11-25T01:30:51;15.70;53.90
44863;DHT22;30597;49.628;10.850;2023-11-25T01:33:17;15.70;53.60
44863;DHT22;30597;49.628;10.850;2023-11-25T01:35:42;15.70;53.60
44863;DHT22;30597;49.628;10.850;2023-11-25T01:38:10;15.60;53.30
44863;DHT22;30597;49.628;10.850;2023-11-25T01:40:35;15.60;53.60
44863;DHT22;30597;49.628;10.850;2023-11-25T01:43:06;15.60;53.90
44863;DHT22;30597;49.628;10.850;2023-11-25T01:45:33;15.70;54.50
44863;DHT22;30597;49.628;10.850;2023-11-25T01:48:00;15.70;54.00
44863;DHT22;30597;49.628;10.850;2023-11-25T01:50:29;15.60;54.10
44863;DHT22;30597;49.628;10.850;2023-11-25T01:52:59;15.70;54.40
44863;DHT22;30597;49.628;10.850;2023-11-25T01:55:24;15.50;53.50
44863;DHT22;30597;49.628;10.850;2023-11-25T01:57:53;15.50;54.00
44863;DHT22;30597;49.628;10.850;2023-11-25T02:00:20;15.60;53.30
44863;DHT22;30597;49.628;10.850;2023-11-25T02:02:49;15.50;53.50
44863;DHT22;30597;49.628;10.850;2023-11-25T02:05:15;15.50;54.50
44863;DHT22;30597;49.628;10.850;2023-11-25T02:07:42;15.50;53.50
44863;DHT22;30597;49.628;10.850;2023-11-25T02:10:08;15.50;53.80
44863;DHT22;30597;49.628;10.850;2023-11-25T02:12:36;15.50;53.90
44863;DHT22;30597;49.628;10.850;2023-11-25T02:15:05;15.50;54.40
44863;DHT22;30597;49.628;10.850;2023-11-25T02:17:40;15.50;54.20
44863;DHT22;30597;49.628;10.850;2023-11-25T02:20:06;15.40;54.00
44863;DHT22;30597;49.628;10.850;2023-11-25T02:22:34;15.40;53.80
44863;DHT22;30597;49.628;10.850;2023-11-25T02:25:03;15.40;53.50
44863;DHT22;30597;49.628;10.850;2023-11-25T02:27:28;15.40;54.40
44863;DHT22;30597;49.628;10.850;2023-11-25T02:29:54;15.40;54.00
44863;DHT22;30597;49.628;10.850;2023-11-25T02:32:21;15.50;54.30
44863;DHT22;30597;49.628;10.850;2023-11-25T02:34:46;15.40;53.90
44863;DHT22;30597;49.628;10.850;2023-11-25T02:37:12;15.50;54.30
44863;DHT22;30597;49.628;10.850;2023-11-25T02:39:41;15.50;54.10
44863;DHT22;30597;49.628;10.850;2023-11-25T02:42:07;15.40;54.00
44863;DHT22;30597;49.628;10.850;2023-11-25T02:44:34;15.40;54.40
44863;DHT22;30597;49.628;10.850;2023-11-25T02:47:02;15.40;53.90
44863;DHT22;30597;49.628;10.850;2023-11-25T02:49:30;15.40;54.30
44863;DHT22;30597;49.628;10.850;2023-11-25T02:51:56;15.30;54.50
44863;DHT22;30597;49.628;10.850;2023-11-25T02:54:23;15.20;54.90
44863;DHT22;30597;49.628;10.850;2023-11-25T02:56:49;15.20;54.80
44863;DHT22;30597;49.628;10.850;2023-11-25T02:59:16;15.20;55.80
44863;DHT22;30597;49.628;10.850;2023-11-25T03:01:43;15.30;55.30
44863;DHT22;30597;49.628;10.850;2023-11-25T03:04:24;15.20;55.20
44863;DHT22;30597;49.628;10.850;2023-11-25T03:06:52;15.30;54.80
44863;DHT22;30597;49.628;10.850;2023-11-25T03:09:19;15.20;55.30
44863;DHT22;30597;49.628;10.850;2023-11-25T03:11:45;15.30;55.10
44863;DHT22;30597;49.628;10.850;2023-11-25T03:14:12;15.30;55.10
44863;DHT22;30597;49.628;10.850;2023-11-25T03:16:41;15.20;55.20
44863;DHT22;30597;49.628;10.850;2023-11-25T03:19:06;15.20;55.20
44863;DHT22;30597;49.628;10.850;2023-11-25T03:21:35;15.20;55.00
44863;DHT22;30597;49.628;10.850;2023-11-25T03:24:01;15.20;55.00
44863;DHT22;30597;49.628;10.850;2023-11-25T03:26:28;15.30;54.50
44863;DHT22;30597;49.628;10.850;2023-11-25T03:28:53;15.20;54.90
44863;DHT22;30597;49.628;10.850;2023-11-25T03:31:21;15.30;54.80
44863;DHT22;30597;49.628;10.850;2023-11-25T03:33:50;15.40;54.50
44863;DHT22;30597;49.628;10.850;2023-11-25T03:36:16;15.60;54.50
44863;DHT22;30597;49.628;10.850;2023-11-25T03:38:42;15.80;54.50
44863;DHT22;30597;49.628;10.850;2023-11-25T03:41:07;15.80;54.30
44863;DHT22;30597;49.628;10.850;2023-11-25T03:43:34;15.90;54.10
44863;DHT22;30597;49.628;10.850;2023-11-25T03:45:59;16.00;53.70
44863;DHT22;30597;49.628;10.850;2023-11-25T03:48:25;16.20;53.50
44863;DHT22;30597;49.628;10.850;2023-11-25T03:50:51;16.20;53.50
44863;DHT22;30597;49.628;10.850;2023-11-25T03:53:16;16.30;53.50
44863;DHT22;30597;49.628;10.850;2023-11-25T03:55:43;16.30;53.20
44863;DHT22;30597;49.628;10.850;2023-11-25T03:58:09;16.40;52.90
44863;DHT22;30597;49.628;10.850;2023-11-25T04:00:36;16.60;53.10
44863;DHT22;30597;49.628;10.850;2023-11-25T04:03:02;16.60;52.90
44863;DHT22;30597;49.628;10.850;2023-11-25T04:05:27;16.60;52.90
44863;DHT22;30597;49.628;10.850;2023-11-25T04:07:53;16.80;53.10
44863;DHT22;30597;49.628;10.850;2023-11-25T04:10:19;16.90;53.10
44863;DHT22;30597;49.628;10.850;2023-11-25T04:12:46;16.80;52.30
44863;DHT22;30597;49.628;10.850;2023-11-25T04:15:13;16.80;52.80
44863;DHT22;30597;49.628;10.850;2023-11-25T04:17:39;17.00;53.00
44863;DHT22;30597;49.628;10.850;2023-11-25T04:20:12;16.90;52.60
44863;DHT22;30597;49.628;10.850;2023-11-25T04:22:49;17.10;52.60
44863;DHT22;30597;49.628;10.850;2023-11-25T04:25:15;17.10;52.30
44863;DHT22;30597;49.628;10.850;2023-11-25T04:27:42;17.30;52.80
44863;DHT22;30597;49.628;10.850;2023-11-25T04:30:09;17.20;52.30
44863;DHT22;30597;49.628;10.850;2023-11-25T04:32:39;17.30;52.50
44863;DHT22;30597;49.628;10.850;2023-11-25T04:35:08;17.40;52.20
44863;DHT22;30597;49.628;10.850;2023-11-25T04:37:34;17.40;52.00
44863;DHT22;30597;49.628;10.850;2023-11-25T04:40:01;17.50;52.30
44863;DHT22;30597;49.628;10.850;2023-11-25T04:42:30;17.50;52.30
44863;DHT22;30597;49.628;10.850;2023-11-25T04:44:56;17.50;51.90
44863;DHT22;30597;49.628;10.850;2023-11-25T04:47:22;17.60;52.20
44863;DHT22;30597;49.628;10.850;2023-11-25T04:49:47;17.70;52.10
44863;DHT22;30597;49.628;10.850;2023-11-25T04:52:13;17.70;51.80
44863;DHT22;30597;49.628;10.850;2023-11-25T04:54:39;17.70;51.90
44863;DHT22;30597;49.628;10.850;2023-11-25T04:57:07;17.80;51.90
44863;DHT22;30597;49.628;10.850;2023-11-25T04:59:33;17.80;51.90
44863;DHT22;30597;49.628;10.850;2023-11-25T05:02:00;17.80;51.80
44863;DHT22;30597;49.628;10.850;2023-11-25T05:04:26;17.80;51.90
44863;DHT22;30597;49.628;10.850;2023-11-25T05:06:52;17.90;51.90
44863;DHT22;30597;49.628;10.850;2023-11-25T05:09:18;17.90;51.90
44863;DHT22;30597;49.628;10.850;2023-11-25T05:11:47;17.90;51.60
44863;DHT22;30597;49.628;10.850;2023-11-25T05:14:13;17.90;51.70
44863;DHT22;30597;49.628;10.850;2023-11-25T05:16:39;18.10;52.10
44863;DHT22;30597;49.628;10.850;2023-11-25T05:19:04;17.90;51.40
44863;DHT22;30597;49.628;10.850;2023-11-25T05:21:30;18.00;51.80
44863;DHT22;30597;49.628;10.850;2023-11-25T05:23:56;18.00;51.90
44863;DHT22;30597;49.628;10.850;2023-11-25T05:26:25;17.90;51.90
44863;DHT22;30597;49.628;10.850;2023-11-25T05:28:50;17.80;52.10
44863;DHT22;30597;49.628;10.850;2023-11-25T05:31:16;17.80;52.20
44863;DHT22;30597;49.628;10.850;2023-11-25T05:33:43;17.80;52.30
44863;DHT22;30597;49.628;10.850;2023-11-25T05:36:09;17.70;52.10
44863;DHT22;30597;49.628;10.850;2023-11-25T05:38:35;17.70;52.30
44863;DHT22;30597;49.628;10.850;2023-11-25T05:41:01;17.60;52.30
44863;DHT22;30597;49.628;10.850;2023-11-25T05:43:29;17.50;52.50
44863;DHT22;30597;49.628;10.850;2023-11-25T05:45:55;17.40;52.60
44863;DHT22;30597;49.628;10.850;2023-11-25T05:48:20;17.40;53.10
44863;DHT22;30597;49.628;10.850;2023-11-25T05:50:49;17.30;53.20
44863;DHT22;30597;49.628;10.850;2023-11-25T05:53:14;17.20;53.30
44863;DHT22;30597;49.628;10.850;2023-11-25T05:55:40;17.20;53.30
44863;DHT22;30597;49.628;10.850;2023-11-25T05:58:06;17.10;53.60
44863;DHT22;30597;49.628;10.850;2023-11-25T06:00:32;17.10;53.60
44863;DHT22;30597;49.628;10.850;2023-11-25T06:02:57;17.00;53.70
44863;DHT22;30597;49.628;10.850;2023-11-25T06:05:23;17.00;53.70
44863;DHT22;30597;49.628;10.850;2023-11-25T06:07:48;17.10;53.80
44863;DHT22;30597;49.628;10.850;2023-11-25T06:10:14;16.90;53.80
44863;DHT22;30597;49.628;10.850;2023-11-25T06:12:40;16.90;53.80
44863;DHT22;30597;49.628;10.850;2023-11-25T06:15:07;16.90;54.00
44863;DHT22;30597;49.628;10.850;2023-11-25T06:17:35;17.10;54.00
44863;DHT22;30597;49.628;10.850;2023-11-25T06:20:02;17.20;53.80
44863;DHT22;30597;49.628;10.850;2023-11-25T06:22:28;17.40;53.60
44863;DHT22;30597;49.628;10.850;2023-11-25T06:24:53;17.50;53.30
44863;DHT22;30597;49.628;10.850;2023-11-25T06:27:19;17.70;53.10
44863;DHT22;30597;49.628;10.850;2023-11-25T06:29:47;17.90;53.00
44863;DHT22;30597;49.628;10.850;2023-11-25T06:32:13;17.90;52.80
44863;DHT22;30597;49.628;10.850;2023-11-25T06:34:39;18.00;52.50
44863;DHT22;30597;49.628;10.850;2023-11-25T06:37:05;18.00;52.40
44863;DHT22;30597;49.628;10.850;2023-11-25T06:39:31;18.10;52.30
44863;DHT22;30597;49.628;10.850;2023-11-25T06:41:58;18.30;52.40
44863;DHT22;30597;49.628;10.850;2023-11-25T06:44:25;18.20;52.40
44863;DHT22;30597;49.628;10.850;2023-11-25T06:46:52;18.30;52.30
44863;DHT22;30597;49.628;10.850;2023-11-25T06:49:17;18.30;52.10
44863;DHT22;30597;49.628;10.850;2023-11-25T06:51:43;18.40;52.20
44863;DHT22;30597;49.628;10.850;2023-11-25T06:54:09;18.40;52.10
44863;DHT22;30597;49.628;10.850;2023-11-25T06:56:35;18.30;52.10
44863;DHT22;30597;49.628;10.850;2023-11-25T06:59:04;18.30;52.10
44863;DHT22;30597;49.628;10.850;2023-11-25T07:01:31;18.20;52.30
44863;DHT22;30597;49.628;10.850;2023-11-25T07:03:57;18.20;52.40
44863;DHT22;30597;49.628;10.850;2023-11-25T07:06:23;18.10;52.30
44863;DHT22;30597;49.628;10.850;2023-11-25T07:08:49;18.00;52.40
44863;DHT22;30597;49.628;10.850;2023-11-25T07:11:15;17.90;52.40
44863;DHT22;30597;49.628;10.850;2023-11-25T07:13:42;17.90;52.60
44863;DHT22;30597;49.628;10.850;2023-11-25T07:16:08;17.90;53.40
44863;DHT22;30597;49.628;10.850;2023-11-25T07:18:34;17.70;52.80
44863;DHT22;30597;49.628;10.850;2023-11-25T07:21:00;17.70;52.90
44863;DHT22;30597;49.628;10.850;2023-11-25T07:23:27;17.70;53.10
44863;DHT22;30597;49.628;10.850;2023-11-25T07:25:53;17.50;53.00
44863;DHT22;30597;49.628;10.850;2023-11-25T07:28:21;17.50;53.20
44863;DHT22;30597;49.628;10.850;2023-11-25T07:30:48;17.40;53.30
44863;DHT22;30597;49.628;10.850;2023-11-25T07:33:13;17.30;53.30
44863;DHT22;30597;49.628;10.850;2023-11-25T07:35:40;17.30;53.40
44863;DHT22;30597;49.628;10.850;2023-11-25T07:38:05;17.20;53.40
44863;DHT22;30597;49.628;10.850;2023-11-25T07:40:31;17.30;53.50
44863;DHT22;30597;49.628;10.850;2023-11-25T07:42:57;17.30;53.60
44863;DHT22;30597;49.628;10.850;2023-11-25T07:45:23;17.10;53.60
44863;DHT22;30597;49.628;10.850;2023-11-25T07:47:51;17.10;53.50
44863;DHT22;30597;49.628;10.850;2023-11-25T07:50:17;17.10;53.80
44863;DHT22;30597;49.628;10.850;2023-11-25T07:52:42;17.00;53.60
44863;DHT22;30597;49.628;10.850;2023-11-25T07:55:08;17.00;53.50
44863;DHT22;30597;49.628;10.850;2023-11-25T07:57:34;17.10;53.70
44863;DHT22;30597;49.628;10.850;2023-11-25T08:00:00;17.30;53.60
44863;DHT22;30597;49.628;10.850;2023-11-25T08:02:26;17.50;53.30
44863;DHT22;30597;49.628;10.850;2023-11-25T08:04:51;17.70;53.10
44863;DHT22;30597;49.628;10.850;2023-11-25T08:07:17;17.70;52.90
44863;DHT22;30597;49.628;10.850;2023-11-25T08:09:43;18.00;52.70
44863;DHT22;30597;49.628;10.850;2023-11-25T08:12:09;18.10;52.40
44863;DHT22;30597;49.628;10.850;2023-11-25T08:14:35;18.20;52.30
44863;DHT22;30597;49.628;10.850;2023-11-25T08:17:01;18.10;52.10
44863;DHT22;30597;49.628;10.850;2023-11-25T08:19:27;18.20;52.00
44863;DHT22;30597;49.628;10.850;2023-11-25T08:21:53;18.30;51.90
44863;DHT22;30597;49.628;10.850;2023-11-25T08:24:18;18.30;51.80
44863;DHT22;30597;49.628;10.850;2023-11-25T08:26:45;18.50;51.80
44863;DHT22;30597;49.628;10.850;2023-11-25T08:29:11;18.40;52.30
44863;DHT22;30597;49.628;10.850;2023-11-25T08:31:37;18.40;51.50
44863;DHT22;30597;49.628;10.850;2023-11-25T08:34:04;18.40;51.70
44863;DHT22;30597;49.628;10.850;2023-11-25T08:36:31;18.30;51.50
44863;DHT22;30597;49.628;10.850;2023-11-25T08:38:58;18.30;51.40
44863;DHT22;30597;49.628;10.850;2023-11-25T08:41:27;18.30;51.50
44863;DHT22;30597;49.628;10.850;2023-11-25T08:43:53;18.20;51.90
44863;DHT22;30597;49.628;10.850;2023-11-25T08:46:18;18.10;51.70
44863;DHT22;30597;49.628;10.850;2023-11-25T08:48:46;18.10;51.80
44863;DHT22;30597;49.628;10.850;2023-11-25T08:51:11;18.00;52.00
44863;DHT22;30597;49.628;10.850;2023-11-25T08:53:37;17.90;52.00
44863;DHT22;30597;49.628;10.850;2023-11-25T08:56:03;17.90;52.00
44863;DHT22;30597;49.628;10.850;2023-11-25T08:58:30;17.80;52.20
44863;DHT22;30597;49.628;10.850;2023-11-25T09:00:56;17.70;52.40
44863;DHT22;30597;49.628;10.850;2023-11-25T09:03:22;17.70;52.50
44863;DHT22;30597;49.628;10.850;2023-11-25T09:05:51;17.60;52.60
44863;DHT22;30597;49.628;10.850;2023-11-25T09:08:16;17.60;52.60
44863;DHT22;30597;49.628;10.850;2023-11-25T09:10:42;17.50;52.60
44863;DHT22;30597;49.628;10.850;2023-11-25T09:13:08;17.40;52.80
44863;DHT22;30597;49.628;10.850;2023-11-25T09:15:34;17.50;53.00
44863;DHT22;30597;49.628;10.850;2023-11-25T09:18:00;17.50;52.90
44863;DHT22;30597;49.628;10.850;2023-11-25T09:20:26;17.30;52.80
44863;DHT22;30597;49.628;10.850;2023-11-25T09:22:52;17.20;52.50
44863;DHT22;30597;49.628;10.850;2023-11-25T09:25:18;17.20;52.80
44863;DHT22;30597;49.628;10.850;2023-11-25T09:27:45;17.10;52.20
44863;DHT22;30597;49.628;10.850;2023-11-25T09:30:11;17.10;53.20
44863;DHT22;30597;49.628;10.850;2023-11-25T09:32:38;17.00;52.70
44863;DHT22;30597;49.628;10.850;2023-11-25T09:35:04;16.90;52.70
44863;DHT22;30597;49.628;10.850;2023-11-25T09:37:32;17.00;53.30
44863;DHT22;30597;49.628;10.850;2023-11-25T09:39:58;17.10;53.40
44863;DHT22;30597;49.628;10.850;2023-11-25T09:42:23;17.30;53.30
44863;DHT22;30597;49.628;10.850;2023-11-25T09:44:49;17.40;52.90
44863;DHT22;30597;49.628;10.850;2023-11-25T09:47:16;17.70;52.80
44863;DHT22;30597;49.628;10.850;2023-11-25T09:49:42;17.80;52.50
44863;DHT22;30597;49.628;10.850;2023-11-25T09:52:09;17.90;52.00
44863;DHT22;30597;49.628;10.850;2023-11-25T09:54:35;18.10;52.00
44863;DHT22;30597;49.628;10.850;2023-11-25T09:57:01;18.10;51.80
44863;DHT22;30597;49.628;10.850;2023-11-25T09:59:29;18.30;51.80
44863;DHT22;30597;49.628;10.850;2023-11-25T10:01:58;18.30;51.40
44863;DHT22;30597;49.628;10.850;2023-11-25T10:04:26;18.40;51.10
44863;DHT22;30597;49.628;10.850;2023-11-25T10:06:53;18.40;51.50
44863;DHT22;30597;49.628;10.850;2023-11-25T10:09:21;18.50;51.30
44863;DHT22;30597;49.628;10.850;2023-11-25T10:11:47;18.40;51.30
44863;DHT22;30597;49.628;10.850;2023-11-25T10:14:13;18.40;51.20
44863;DHT22;30597;49.628;10.850;2023-11-25T10:16:40;18.40;51.10
44863;DHT22;30597;49.628;10.850;2023-11-25T10:19:22;18.30;51.30
44863;DHT22;30597;49.628;10.850;2023-11-25T10:21:49;18.20;50.90
44863;DHT22;30597;49.628;10.850;2023-11-25T10:24:16;18.00;50.70
44863;DHT22;30597;49.628;10.850;2023-11-25T10:26:43;18.00;51.00
44863;DHT22;30597;49.628;10.850;2023-11-25T10:29:12;18.00;51.00
44863;DHT22;30597;49.628;10.850;2023-11-25T10:31:41;17.70;51.30
44863;DHT22;30597;49.628;10.850;2023-11-25T10:34:09;17.70;50.90
44863;DHT22;30597;49.628;10.850;2023-11-25T10:36:39;17.70;51.50
44863;DHT22;30597;49.628;10.850;2023-11-25T10:39:08;17.70;52.10
44863;DHT22;30597;49.628;10.850;2023-11-25T10:41:35;17.60;51.80
44863;DHT22;30597;49.628;10.850;2023-11-25T10:44:07;17.60;52.30
44863;DHT22;30597;49.628;10.850;2023-11-25T10:46:39;17.50;52.30
44863;DHT22;30597;49.628;10.850;2023-11-25T10:49:08;17.50;52.40
44863;DHT22;30597;49.628;10.850;2023-11-25T10:51:37;17.50;52.50
44863;DHT22;30597;49.628;10.850;2023-11-25T10:54:09;17.40;52.40
44863;DHT22;30597;49.628;10.850;2023-11-25T10:56:35;17.40;52.60
44863;DHT22;30597;49.628;10.850;2023-11-25T10:59:03;17.50;52.60
44863;DHT22;30597;49.628;10.850;2023-11-25T11:01:31;17.30;52.50
44863;DHT22;30597;49.628;10.850;2023-11-25T11:04:03;17.40;53.00
44863;DHT22;30597;49.628;10.850;2023-11-25T11:06:47;17.30;53.00
44863;DHT22;30597;49.628;10.850;2023-11-25T11:09:19;17.20;52.90
44863;DHT22;30597;49.628;10.850;2023-11-25T11:12:02;17.20;52.80
44863;DHT22;30597;49.628;10.850;2023-11-25T11:14:31;17.20;53.10
44863;DHT22;30597;49.628;10.850;2023-11-25T11:17:10;17.20;53.00
44863;DHT22;30597;49.628;10.850;2023-11-25T11:19:40;17.10;53.10
44863;DHT22;30597;49.628;10.850;2023-11-25T11:22:09;17.20;52.80
44863;DHT22;30597;49.628;10.850;2023-11-25T11:24:54;17.20;53.10
44863;DHT22;30597;49.628;10.850;2023-11-25T11:27:33;17.40;53.10
44863;DHT22;30597;49.628;10.850;2023-11-25T11:32:38;17.70;52.50
44863;DHT22;30597;49.628;10.850;2023-11-25T11:35:08;17.80;51.90
44863;DHT22;30597;49.628;10.850;2023-11-25T11:37:39;17.90;51.60
44863;DHT22;30597;49.628;10.850;2023-11-25T11:40:12;18.10;52.00
44863;DHT22;30597;49.628;10.850;2023-11-25T11:42:38;18.00;51.90
44863;DHT22;30597;49.628;10.850;2023-11-25T11:45:12;18.20;51.70
44863;DHT22;30597;49.628;10.850;2023-11-25T11:48:04;18.20;51.30
44863;DHT22;30597;49.628;10.850;2023-11-25T11:50:31;18.10;51.20
44863;DHT22;30597;49.628;10.850;2023-11-25T12:03:25;18.00;51.70
44863;DHT22;30597;49.628;10.850;2023-11-25T12:05:51;18.10;51.70
44863;DHT22;30597;49.628;10.850;2023-11-25T12:08:17;17.90;51.50
44863;DHT22;30597;49.628;10.850;2023-11-25T12:10:43;17.90;51.70
44863;DHT22;30597;49.628;10.850;2023-11-25T12:13:09;17.80;51.70
44863;DHT22;30597;49.628;10.850;2023-11-25T12:15:36;17.70;51.80
44863;DHT22;30597;49.628;10.850;2023-11-25T12:18:03;17.70;52.20
44863;DHT22;30597;49.628;10.850;2023-11-25T12:20:30;17.60;52.40
44863;DHT22;30597;49.628;10.850;2023-11-25T12:22:56;17.60;52.40
44863;DHT22;30597;49.628;10.850;2023-11-25T12:25:27;17.50;52.70
44863;DHT22;30597;49.628;10.850;2023-11-25T12:30:30;17.60;52.90
44863;DHT22;30597;49.628;10.850;2023-11-25T12:33:00;17.50;52.60
44863;DHT22;30597;49.628;10.850;2023-11-25T12:35:26;17.40;52.60
44863;DHT22;30597;49.628;10.850;2023-11-25T12:37:52;17.30;52.50
44863;DHT22;30597;49.628;10.850;2023-11-25T12:40:21;17.20;52.70
44863;DHT22;30597;49.628;10.850;2023-11-25T12:42:52;17.20;52.60
44863;DHT22;30597;49.628;10.850;2023-11-25T12:47:54;17.10;52.80
44863;DHT22;30597;49.628;10.850;2023-11-25T12:50:25;17.20;52.90
44863;DHT22;30597;49.628;10.850;2023-11-25T12:53:09;17.10;53.40
44863;DHT22;30597;49.628;10.850;2023-11-25T12:55:41;17.00;53.00
44863;DHT22;30597;49.628;10.850;2023-11-25T12:58:18;17.00;53.40
44863;DHT22;30597;49.628;10.850;2023-11-25T13:03:30;17.10;53.20
44863;DHT22;30597;49.628;10.850;2023-11-25T13:06:04;17.20;53.20
44863;DHT22;30597;49.628;10.850;2023-11-25T13:08:33;17.30;53.10
44863;DHT22;30597;49.628;10.850;2023-11-25T13:11:06;17.50;53.20
44863;DHT22;30597;49.628;10.850;2023-11-25T13:13:35;17.60;52.40
44863;DHT22;30597;49.628;10.850;2023-11-25T13:16:02;17.70;52.20
44863;DHT22;30597;49.628;10.850;2023-11-25T13:18:30;17.80;52.50
44863;DHT22;30597;49.628;10.850;2023-11-25T13:20:57;17.80;52.20
44863;DHT22;30597;49.628;10.850;2023-11-25T13:23:23;18.10;51.90
44863;DHT22;30597;49.628;10.850;2023-11-25T13:25:49;18.00;51.70
44863;DHT22;30597;49.628;10.850;2023-11-25T13:28:15;18.20;52.10
44863;DHT22;30597;49.628;10.850;2023-11-25T13:30:41;18.10;51.80
44863;DHT22;30597;49.628;10.850;2023-11-25T13:33:10;18.10;51.80
44863;DHT22;30597;49.628;10.850;2023-11-25T13:35:38;18.10;51.40
44863;DHT22;30597;49.628;10.850;2023-11-25T13:38:04;18.00;51.50
44863;DHT22;30597;49.628;10.850;2023-11-25T13:40:32;18.00;51.60
44863;DHT22;30597;49.628;10.850;2023-11-25T13:43:05;18.00;51.60
44863;DHT22;30597;49.628;10.850;2023-11-25T13:45:31;17.90;52.10
44863;DHT22;30597;49.628;10.850;2023-11-25T13:47:57;17.80;51.90
44863;DHT22;30597;49.628;10.850;2023-11-25T13:50:24;17.90;52.50
44863;DHT22;30597;49.628;10.850;2023-11-25T13:52:51;17.70;51.90
44863;DHT22;30597;49.628;10.850;2023-11-25T13:55:17;17.80;52.40
44863;DHT22;30597;49.628;10.850;2023-11-25T13:57:44;17.60;52.50
44863;DHT22;30597;49.628;10.850;2023-11-25T14:00:11;17.60;52.50
44863;DHT22;30597;49.628;10.850;2023-11-25T14:02:37;17.50;52.30
44863;DHT22;30597;49.628;10.850;2023-11-25T14:05:03;17.40;52.80
44863;DHT22;30597;49.628;10.850;2023-11-25T14:07:30;17.40;52.60
44863;DHT22;30597;49.628;10.850;2023-11-25T14:09:55;17.30;53.00
44863;DHT22;30597;49.628;10.850;2023-11-25T14:12:21;17.30;53.10
44863;DHT22;30597;49.628;10.850;2023-11-25T14:14:47;17.20;52.80
44863;DHT22;30597;49.628;10.850;2023-11-25T14:17:13;17.30;53.00
44863;DHT22;30597;49.628;10.850;2023-11-25T14:19:45;17.20;52.60
44863;DHT22;30597;49.628;10.850;2023-11-25T14:22:11;17.10;52.90
44863;DHT22;30597;49.628;10.850;2023-11-25T14:24:38;17.10;53.00
44863;DHT22;30597;49.628;10.850;2023-11-25T14:27:04;17.00;53.50
44863;DHT22;30597;49.628;10.850;2023-11-25T14:29:30;17.00;53.20
44863;DHT22;30597;49.628;10.850;2023-11-25T14:31:56;16.90;52.80
44863;DHT22;30597;49.628;10.850;2023-11-25T14:34:22;17.00;53.40
44863;DHT22;30597;49.628;10.850;2023-11-25T14:36:47;16.90;53.10
44863;DHT22;30597;49.628;10.850;2023-11-25T14:39:13;16.90;53.30
44863;DHT22;30597;49.628;10.850;2023-11-25T14:41:44;17.00;53.10
44863;DHT22;30597;49.628;10.850;2023-11-25T14:44:12;17.00;53.70
44863;DHT22;30597;49.628;10.850;2023-11-25T14:46:37;17.20;53.60
44863;DHT22;30597;49.628;10.850;2023-11-25T14:49:03;17.30;53.20
44863;DHT22;30597;49.628;10.850;2023-11-25T14:51:30;17.40;52.80
44863;DHT22;30597;49.628;10.850;2023-11-25T14:53:56;17.60;52.90
44863;DHT22;30597;49.628;10.850;2023-11-25T14:56:21;17.80;52.80
44863;DHT22;30597;49.628;10.850;2023-11-25T14:58:47;17.90;52.70
44863;DHT22;30597;49.628;10.850;2023-11-25T15:01:13;17.90;52.50
44863;DHT22;30597;49.628;10.850;2023-11-25T15:03:39;18.00;52.60
44863;DHT22;30597;49.628;10.850;2023-11-25T15:06:06;18.10;52.20
44863;DHT22;30597;49.628;10.850;2023-11-25T15:08:32;18.10;52.20
44863;DHT22;30597;49.628;10.850;2023-11-25T15:10:58;18.10;52.20
44863;DHT22;30597;49.628;10.850;2023-11-25T15:13:24;18.20;52.10
44863;DHT22;30597;49.628;10.850;2023-11-25T15:15:50;18.20;52.20
44863;DHT22;30597;49.628;10.850;2023-11-25T15:18:17;18.20;52.20
44863;DHT22;30597;49.628;10.850;2023-11-25T15:20:42;18.10;52.30
44863;DHT22;30597;49.628;10.850;2023-11-25T15:23:08;18.00;52.00
44863;DHT22;30597;49.628;10.850;2023-11-25T15:25:34;17.80;51.80
44863;DHT22;30597;49.628;10.850;2023-11-25T15:28:00;18.00;52.00
44863;DHT22;30597;49.628;10.850;2023-11-25T15:30:32;17.70;52.50
44863;DHT22;30597;49.628;10.850;2023-11-25T15:32:58;17.70;52.80
44863;DHT22;30597;49.628;10.850;2023-11-25T15:35:25;17.60;52.70